Santiago, Chile

3:16 AM CLT on July 28, 2016 (GMT -0400)
puesta del sol | | Change Station

Elev 1594 ft 33.31 °S, 70.83 °W | Updated 10 minutes ago

Mist
Mist
37.8 °F
Feels Like 38 °F
N
0.0
Wind Variable Wind from South

Today
High -- | Low -- °F
--% Chance of Precip.
Yesterday
High -- | Low -- °F
Precip. -- in
Pressure 30.04 in
Visibility 2.5 miles
Clouds
Windchill 38 °F
Dew Point 37 °F
Humidity 98%
Rainfall 0.00 in
Snow Depth Not available.
7:37 AM 6:02 PM
Waning Crescent, 35% visible
METAR SCEL 280700Z 00000KT 4000 BR NSC 07/04 Q1017 NOSIG
Pressure 30.04 in
Visibility 2.5 miles
Clouds
Windchill 38 °F
Dew Point 37 °F
Humidity 98%
Rainfall 0.00 in
Snow Depth Not available.
7:37 AM 6:02 PM
Waning Crescent, 35% visible
METAR SCEL 280700Z 00000KT 4000 BR NSC 07/04 Q1017 NOSIG

10-Day Weather Forecast

No radar image for this location.
×

Almanac

Astronomy

Jul. 28, 2016 Rise Set
Actual Time
Civil Twilight
Nautical Twilight
Astronomical Twilight
Moon
Length of Visible Light
Length of Day
Tomorrow will be .
, % of the Moon is Illuminated

Today's Extremes

Country Highs Country Lows

Community

WunderPhotos

Upload Photos

1,928,070 photos uploaded!

WunderBlog® & News

Nearby

Air Quality

  Air Quality AQ Index Pollutant
Not available.

Snow Depth

Station Depth Elevation

Earthquake Activity

City Distance Mag. Time & Date
Minimum magnitude displayed is 2.5.

Coastal Water Temperatures

Place Temperature

Stations

Nearby Weather Stations

Station Location Temp. Windchill Dew Point Humidity Wind Precip. Elev Updated Type